Radar is unstable, so pay attention to the date and time in the image

Latest  Newer  Older  Last 2 hours animation  Current image  Latest image  Summary per 24h (testing)  Summary per 7d (testing) 
Cloud coverage sat images  Infrared sat images 
Real-time lightning map Aurora Forecast

All time is UTC (add 2 hours in wintertime, 3 hours in DST for Latvia local time)

2022/05/21 18:20 EVRA 211820Z 06006KT 360V080 9999 -RA BKN005 BKN010 OVC014 10/10 Q1003 NOSIG
2022/05/21 18:20 EVLA 211820Z AUTO 30002KT 9999 -RA SCT004/// BKN006/// OVC025/// 09/08 Q1004
2022/05/21 18:20 EVVA 211820Z AUTO 04007KT 9999 FEW004 OVC009 10/10 Q1004
2022/05/21 18:20 EYKA 211820Z 28012KT 250V340 9000 -RA BKN005 OVC008 09/08 Q1003
2022/05/21 18:20 EYPA 211820Z 29003KT 230V030 9999 OVC007 09/08 Q1004
2022/05/21 18:20 EYSA 211820Z 29009KT 9000 -RA BKN005 OVC012 10/09 Q1003 NOSIG
2022/05/21 18:20 EYVI 211820Z 03011KT 7000 -SHRA BKN005 BKN049CB 11/11 Q1001 NOSIG
2022/05/21 07:50 EEKA 210750Z 03012KT 350V070 CAVOK 09/05 Q1008
2022/05/21 17:50 EEKE 211750Z AUTO 01003KT 9999NDV -RA FEW050 11/09 Q1006
2022/05/21 17:50 EEPU 211750Z AUTO 03010KT 340V060 9999 BKN083/// OVC120/// 14/03 Q1006
2022/05/21 18:20 EETN 211820Z 07014KT CAVOK 10/M01 Q1009 NOSIG
2022/05/21 17:50 EETU 211750Z AUTO 06007KT 9999 NCD 15/M02 Q1005
   RIGA AIRPORT     EVRA               56 55N  023 58E   10   X     T          6 LV
   LIEPAJA INTL     EVLA        26406  56 31N  021 06E    4   X                8 LV
   VENTPILS         EVVA               57 21N  021 33E    6   X                8 LV
   KAUNAS           EYKA               54 54N  023 55E   77   X     T          6 LT
   PALANGA INTL     EYPA               55 55N  021 03E   10   X                6 LT
   SIAULIAI INTL    EYSA               55 54N  023 24E  135   X     T          6 LT
   VILNIUS INTL     EYVI        26730  54 38N  025 17E  197   X     T          6 LT
   KARDLA           EEKA        26116  58 59N  022 50E    4   X                8 EE
   KURESSAARE       EEKE               58 14N  022 31E    4   X                8 EE
   PARNU            EEPU               58 25N  024 28E   14   X                8 EE
   TALLINN          EETN        26038  59 24N  024 49E   40   X     T          8 EE
   TARTU            EETU               58 19N  026 41E   67   X                8 EE

rain/snow radar image from www.meteo.lv and METAR data from weather.noaa.gov